sensor_id;sensor_type;location;lat;lon;timestamp;P1;durP1;ratioP1;P2;durP2;ratioP2
12181;SDS011;6154;51.550;12.138;2024-02-21T00:01:44;5.50;;;1.27;;
12181;SDS011;6154;51.550;12.138;2024-02-21T00:04:12;3.90;;;1.02;;
12181;SDS011;6154;51.550;12.138;2024-02-21T00:06:40;5.55;;;1.45;;
12181;SDS011;6154;51.550;12.138;2024-02-21T00:09:08;3.42;;;1.50;;
12181;SDS011;6154;51.550;12.138;2024-02-21T00:11:36;2.87;;;1.35;;
12181;SDS011;6154;51.550;12.138;2024-02-21T00:14:05;6.70;;;1.90;;
12181;SDS011;6154;51.550;12.138;2024-02-21T00:16:33;6.80;;;1.48;;
12181;SDS011;6154;51.550;12.138;2024-02-21T00:19:01;5.00;;;1.48;;
12181;SDS011;6154;51.550;12.138;2024-02-21T00:21:30;5.15;;;1.77;;
12181;SDS011;6154;51.550;12.138;2024-02-21T00:24:00;3.05;;;1.15;;
12181;SDS011;6154;51.550;12.138;2024-02-21T00:26:28;3.95;;;1.73;;
12181;SDS011;6154;51.550;12.138;2024-02-21T00:28:56;2.35;;;1.20;;
12181;SDS011;6154;51.550;12.138;2024-02-21T00:31:25;3.97;;;1.48;;
12181;SDS011;6154;51.550;12.138;2024-02-21T00:33:54;3.97;;;1.48;;
12181;SDS011;6154;51.550;12.138;2024-02-21T00:36:21;6.85;;;2.03;;
12181;SDS011;6154;51.550;12.138;2024-02-21T00:38:49;10.35;;;2.22;;
12181;SDS011;6154;51.550;12.138;2024-02-21T00:41:17;6.10;;;1.58;;
12181;SDS011;6154;51.550;12.138;2024-02-21T00:43:45;9.52;;;2.25;;
12181;SDS011;6154;51.550;12.138;2024-02-21T00:46:15;7.25;;;1.90;;
12181;SDS011;6154;51.550;12.138;2024-02-21T00:48:44;6.12;;;1.77;;
12181;SDS011;6154;51.550;12.138;2024-02-21T00:51:13;3.05;;;1.08;;
12181;SDS011;6154;51.550;12.138;2024-02-21T00:53:41;9.85;;;2.12;;
12181;SDS011;6154;51.550;12.138;2024-02-21T00:56:09;4.55;;;1.42;;
12181;SDS011;6154;51.550;12.138;2024-02-21T00:58:39;5.00;;;1.40;;
12181;SDS011;6154;51.550;12.138;2024-02-21T01:01:07;4.87;;;1.98;;
12181;SDS011;6154;51.550;12.138;2024-02-21T01:03:39;6.10;;;2.17;;
12181;SDS011;6154;51.550;12.138;2024-02-21T01:06:09;5.30;;;1.75;;
12181;SDS011;6154;51.550;12.138;2024-02-21T01:08:49;9.20;;;2.15;;
12181;SDS011;6154;51.550;12.138;2024-02-21T01:11:19;3.83;;;1.87;;
12181;SDS011;6154;51.550;12.138;2024-02-21T01:13:52;6.97;;;1.70;;
12181;SDS011;6154;51.550;12.138;2024-02-21T01:16:20;6.35;;;1.67;;
12181;SDS011;6154;51.550;12.138;2024-02-21T01:18:49;6.10;;;1.30;;
12181;SDS011;6154;51.550;12.138;2024-02-21T01:21:20;7.07;;;1.73;;
12181;SDS011;6154;51.550;12.138;2024-02-21T01:23:59;4.15;;;1.50;;
12181;SDS011;6154;51.550;12.138;2024-02-21T01:26:28;4.05;;;1.48;;
12181;SDS011;6154;51.550;12.138;2024-02-21T01:29:03;6.72;;;1.30;;
12181;SDS011;6154;51.550;12.138;2024-02-21T01:31:31;5.35;;;1.67;;
12181;SDS011;6154;51.550;12.138;2024-02-21T01:34:02;3.03;;;1.25;;
12181;SDS011;6154;51.550;12.138;2024-02-21T01:36:32;4.20;;;1.25;;
12181;SDS011;6154;51.550;12.138;2024-02-21T01:39:03;5.35;;;1.45;;
12181;SDS011;6154;51.550;12.138;2024-02-21T01:41:32;5.05;;;1.75;;
12181;SDS011;6154;51.550;12.138;2024-02-21T01:44:08;5.22;;;1.92;;
12181;SDS011;6154;51.550;12.138;2024-02-21T01:46:36;6.45;;;1.40;;
12181;SDS011;6154;51.550;12.138;2024-02-21T01:49:14;5.70;;;1.58;;
12181;SDS011;6154;51.550;12.138;2024-02-21T01:51:43;8.48;;;1.85;;
12181;SDS011;6154;51.550;12.138;2024-02-21T01:54:12;4.22;;;1.27;;
12181;SDS011;6154;51.550;12.138;2024-02-21T01:56:41;5.82;;;1.55;;
12181;SDS011;6154;51.550;12.138;2024-02-21T01:59:13;3.80;;;1.60;;
12181;SDS011;6154;51.550;12.138;2024-02-21T02:01:42;7.82;;;1.87;;
12181;SDS011;6154;51.550;12.138;2024-02-21T02:04:12;9.27;;;2.47;;
12181;SDS011;6154;51.550;12.138;2024-02-21T02:06:41;7.82;;;1.70;;
12181;SDS011;6154;51.550;12.138;2024-02-21T02:09:10;5.00;;;2.12;;
12181;SDS011;6154;51.550;12.138;2024-02-21T02:11:39;4.53;;;1.35;;
12181;SDS011;6154;51.550;12.138;2024-02-21T02:14:07;3.47;;;1.52;;
12181;SDS011;6154;51.550;12.138;2024-02-21T02:16:35;6.35;;;1.35;;
12181;SDS011;6154;51.550;12.138;2024-02-21T02:19:03;4.87;;;1.40;;
12181;SDS011;6154;51.550;12.138;2024-02-21T02:21:32;2.15;;;1.45;;
12181;SDS011;6154;51.550;12.138;2024-02-21T02:24:08;5.97;;;1.67;;
12181;SDS011;6154;51.550;12.138;2024-02-21T02:26:37;5.50;;;1.40;;
12181;SDS011;6154;51.550;12.138;2024-02-21T02:29:08;4.40;;;1.98;;
12181;SDS011;6154;51.550;12.138;2024-02-21T02:31:36;2.97;;;1.30;;
12181;SDS011;6154;51.550;12.138;2024-02-21T02:34:09;3.00;;;1.37;;
12181;SDS011;6154;51.550;12.138;2024-02-21T02:36:37;4.50;;;1.90;;
12181;SDS011;6154;51.550;12.138;2024-02-21T02:39:05;4.78;;;1.25;;
12181;SDS011;6154;51.550;12.138;2024-02-21T02:41:35;5.32;;;1.23;;
12181;SDS011;6154;51.550;12.138;2024-02-21T02:44:04;5.20;;;1.00;;
12181;SDS011;6154;51.550;12.138;2024-02-21T02:46:32;5.00;;;1.27;;
12181;SDS011;6154;51.550;12.138;2024-02-21T02:49:00;7.35;;;1.55;;
12181;SDS011;6154;51.550;12.138;2024-02-21T02:51:30;6.07;;;1.45;;
12181;SDS011;6154;51.550;12.138;2024-02-21T02:53:58;5.50;;;1.92;;
12181;SDS011;6154;51.550;12.138;2024-02-21T02:56:26;2.95;;;1.73;;
12181;SDS011;6154;51.550;12.138;2024-02-21T02:58:56;10.50;;;1.70;;
12181;SDS011;6154;51.550;12.138;2024-02-21T03:01:24;3.20;;;1.30;;
12181;SDS011;6154;51.550;12.138;2024-02-21T03:03:52;2.78;;;1.58;;
12181;SDS011;6154;51.550;12.138;2024-02-21T03:06:20;3.05;;;1.30;;
12181;SDS011;6154;51.550;12.138;2024-02-21T03:08:48;5.22;;;2.05;;
12181;SDS011;6154;51.550;12.138;2024-02-21T03:11:17;9.52;;;1.90;;
12181;SDS011;6154;51.550;12.138;2024-02-21T03:13:45;3.85;;;1.58;;
12181;SDS011;6154;51.550;12.138;2024-02-21T03:16:14;1.95;;;1.30;;
12181;SDS011;6154;51.550;12.138;2024-02-21T03:18:44;5.32;;;1.67;;
12181;SDS011;6154;51.550;12.138;2024-02-21T03:21:12;6.78;;;1.40;;
12181;SDS011;6154;51.550;12.138;2024-02-21T03:23:40;7.10;;;1.35;;
12181;SDS011;6154;51.550;12.138;2024-02-21T03:26:11;3.25;;;1.20;;
12181;SDS011;6154;51.550;12.138;2024-02-21T03:28:39;5.12;;;2.05;;
12181;SDS011;6154;51.550;12.138;2024-02-21T03:31:07;7.95;;;2.33;;
12181;SDS011;6154;51.550;12.138;2024-02-21T03:33:36;4.35;;;1.60;;
12181;SDS011;6154;51.550;12.138;2024-02-21T03:36:05;5.20;;;1.60;;
12181;SDS011;6154;51.550;12.138;2024-02-21T03:38:33;4.82;;;1.23;;
12181;SDS011;6154;51.550;12.138;2024-02-21T03:41:01;4.45;;;1.35;;
12181;SDS011;6154;51.550;12.138;2024-02-21T03:43:30;5.72;;;1.20;;
12181;SDS011;6154;51.550;12.138;2024-02-21T03:45:58;6.70;;;1.62;;
12181;SDS011;6154;51.550;12.138;2024-02-21T03:48:26;11.40;;;1.80;;
12181;SDS011;6154;51.550;12.138;2024-02-21T03:50:55;6.32;;;1.37;;
12181;SDS011;6154;51.550;12.138;2024-02-21T03:53:23;3.58;;;1.83;;
12181;SDS011;6154;51.550;12.138;2024-02-21T03:55:51;10.40;;;1.65;;
12181;SDS011;6154;51.550;12.138;2024-02-21T03:58:20;5.30;;;2.00;;
12181;SDS011;6154;51.550;12.138;2024-02-21T04:00:48;8.30;;;2.12;;
12181;SDS011;6154;51.550;12.138;2024-02-21T04:03:16;4.47;;;1.42;;
12181;SDS011;6154;51.550;12.138;2024-02-21T04:05:44;3.53;;;1.23;;
12181;SDS011;6154;51.550;12.138;2024-02-21T04:08:14;2.55;;;1.37;;
12181;SDS011;6154;51.550;12.138;2024-02-21T04:10:42;8.00;;;1.45;;
12181;SDS011;6154;51.550;12.138;2024-02-21T04:13:10;6.78;;;1.70;;
12181;SDS011;6154;51.550;12.138;2024-02-21T04:15:38;6.65;;;1.65;;
12181;SDS011;6154;51.550;12.138;2024-02-21T04:18:06;9.57;;;1.85;;
12181;SDS011;6154;51.550;12.138;2024-02-21T04:20:34;4.65;;;1.40;;
12181;SDS011;6154;51.550;12.138;2024-02-21T04:23:05;7.03;;;1.90;;
12181;SDS011;6154;51.550;12.138;2024-02-21T04:25:35;4.32;;;1.62;;
12181;SDS011;6154;51.550;12.138;2024-02-21T04:28:04;7.85;;;1.98;;
12181;SDS011;6154;51.550;12.138;2024-02-21T04:30:32;7.00;;;2.08;;
12181;SDS011;6154;51.550;12.138;2024-02-21T04:33:00;5.93;;;1.98;;
12181;SDS011;6154;51.550;12.138;2024-02-21T04:35:28;6.60;;;1.83;;
12181;SDS011;6154;51.550;12.138;2024-02-21T04:37:57;2.58;;;1.60;;
12181;SDS011;6154;51.550;12.138;2024-02-21T04:40:25;2.30;;;1.48;;
12181;SDS011;6154;51.550;12.138;2024-02-21T04:42:55;8.85;;;1.73;;
12181;SDS011;6154;51.550;12.138;2024-02-21T04:45:23;2.08;;;1.30;;
12181;SDS011;6154;51.550;12.138;2024-02-21T04:47:51;5.57;;;1.62;;
12181;SDS011;6154;51.550;12.138;2024-02-21T04:50:19;4.90;;;1.45;;
12181;SDS011;6154;51.550;12.138;2024-02-21T04:52:48;4.90;;;1.77;;
12181;SDS011;6154;51.550;12.138;2024-02-21T04:55:19;12.32;;;1.65;;
12181;SDS011;6154;51.550;12.138;2024-02-21T04:57:48;5.55;;;1.98;;
12181;SDS011;6154;51.550;12.138;2024-02-21T05:00:18;3.72;;;1.48;;
12181;SDS011;6154;51.550;12.138;2024-02-21T05:02:47;3.15;;;1.25;;
12181;SDS011;6154;51.550;12.138;2024-02-21T05:05:15;3.55;;;1.50;;
12181;SDS011;6154;51.550;12.138;2024-02-21T05:07:44;6.85;;;2.35;;
12181;SDS011;6154;51.550;12.138;2024-02-21T05:10:12;2.35;;;1.87;;
12181;SDS011;6154;51.550;12.138;2024-02-21T05:12:40;5.32;;;2.53;;
12181;SDS011;6154;51.550;12.138;2024-02-21T05:15:08;5.05;;;1.30;;
12181;SDS011;6154;51.550;12.138;2024-02-21T05:17:38;6.82;;;1.87;;
12181;SDS011;6154;51.550;12.138;2024-02-21T05:20:06;6.25;;;2.05;;
12181;SDS011;6154;51.550;12.138;2024-02-21T05:22:35;4.40;;;1.50;;
12181;SDS011;6154;51.550;12.138;2024-02-21T05:25:03;5.45;;;1.90;;
12181;SDS011;6154;51.550;12.138;2024-02-21T05:27:32;3.33;;;2.10;;
12181;SDS011;6154;51.550;12.138;2024-02-21T05:30:00;5.37;;;1.65;;
12181;SDS011;6154;51.550;12.138;2024-02-21T05:32:28;6.28;;;2.53;;
12181;SDS011;6154;51.550;12.138;2024-02-21T05:34:58;8.45;;;1.90;;
12181;SDS011;6154;51.550;12.138;2024-02-21T05:37:26;7.03;;;2.33;;
12181;SDS011;6154;51.550;12.138;2024-02-21T05:39:54;3.97;;;2.03;;
12181;SDS011;6154;51.550;12.138;2024-02-21T05:42:22;5.37;;;1.92;;
12181;SDS011;6154;51.550;12.138;2024-02-21T05:44:50;5.75;;;2.92;;
12181;SDS011;6154;51.550;12.138;2024-02-21T05:47:18;6.55;;;1.67;;
12181;SDS011;6154;51.550;12.138;2024-02-21T05:49:47;2.62;;;1.83;;
12181;SDS011;6154;51.550;12.138;2024-02-21T05:52:17;5.87;;;2.50;;
12181;SDS011;6154;51.550;12.138;2024-02-21T05:54:44;6.68;;;2.60;;
12181;SDS011;6154;51.550;12.138;2024-02-21T05:57:16;4.90;;;1.65;;
12181;SDS011;6154;51.550;12.138;2024-02-21T05:59:44;9.40;;;2.62;;
12181;SDS011;6154;51.550;12.138;2024-02-21T06:02:12;8.90;;;2.83;;
12181;SDS011;6154;51.550;12.138;2024-02-21T06:04:41;9.60;;;2.72;;
12181;SDS011;6154;51.550;12.138;2024-02-21T06:07:11;10.00;;;2.92;;
12181;SDS011;6154;51.550;12.138;2024-02-21T06:09:40;5.32;;;2.40;;
12181;SDS011;6154;51.550;12.138;2024-02-21T06:12:08;6.82;;;3.50;;
12181;SDS011;6154;51.550;12.138;2024-02-21T06:14:36;4.37;;;2.08;;
12181;SDS011;6154;51.550;12.138;2024-02-21T06:17:04;7.12;;;2.95;;
12181;SDS011;6154;51.550;12.138;2024-02-21T06:19:32;9.18;;;2.55;;
12181;SDS011;6154;51.550;12.138;2024-02-21T06:22:00;10.57;;;2.25;;
12181;SDS011;6154;51.550;12.138;2024-02-21T06:24:28;9.55;;;3.03;;
12181;SDS011;6154;51.550;12.138;2024-02-21T06:26:58;5.85;;;2.33;;
12181;SDS011;6154;51.550;12.138;2024-02-21T06:29:26;3.42;;;2.05;;
12181;SDS011;6154;51.550;12.138;2024-02-21T06:31:54;14.52;;;3.28;;
12181;SDS011;6154;51.550;12.138;2024-02-21T06:34:22;5.47;;;2.97;;
12181;SDS011;6154;51.550;12.138;2024-02-21T06:36:50;7.70;;;3.15;;
12181;SDS011;6154;51.550;12.138;2024-02-21T06:39:18;7.07;;;3.08;;
12181;SDS011;6154;51.550;12.138;2024-02-21T06:41:47;5.95;;;2.40;;
12181;SDS011;6154;51.550;12.138;2024-02-21T06:44:18;8.02;;;2.30;;
12181;SDS011;6154;51.550;12.138;2024-02-21T06:46:46;11.00;;;3.62;;
12181;SDS011;6154;51.550;12.138;2024-02-21T06:49:14;11.35;;;3.22;;
12181;SDS011;6154;51.550;12.138;2024-02-21T06:51:43;7.45;;;3.25;;
12181;SDS011;6154;51.550;12.138;2024-02-21T06:54:11;8.95;;;2.42;;
12181;SDS011;6154;51.550;12.138;2024-02-21T06:56:40;11.95;;;2.78;;
12181;SDS011;6154;51.550;12.138;2024-02-21T06:59:08;7.20;;;3.03;;
12181;SDS011;6154;51.550;12.138;2024-02-21T07:01:37;5.82;;;3.40;;
12181;SDS011;6154;51.550;12.138;2024-02-21T07:04:05;10.73;;;3.00;;
12181;SDS011;6154;51.550;12.138;2024-02-21T07:06:34;10.20;;;2.75;;
12181;SDS011;6154;51.550;12.138;2024-02-21T07:09:02;7.70;;;2.85;;
12181;SDS011;6154;51.550;12.138;2024-02-21T07:11:30;6.07;;;2.53;;
12181;SDS011;6154;51.550;12.138;2024-02-21T07:13:58;7.40;;;2.65;;
12181;SDS011;6154;51.550;12.138;2024-02-21T07:16:26;3.97;;;2.00;;
12181;SDS011;6154;51.550;12.138;2024-02-21T07:18:56;5.72;;;2.40;;
12181;SDS011;6154;51.550;12.138;2024-02-21T07:21:25;4.45;;;1.73;;
12181;SDS011;6154;51.550;12.138;2024-02-21T07:23:53;4.03;;;2.15;;
12181;SDS011;6154;51.550;12.138;2024-02-21T07:26:22;5.05;;;2.10;;
12181;SDS011;6154;51.550;12.138;2024-02-21T07:28:49;4.30;;;2.10;;
12181;SDS011;6154;51.550;12.138;2024-02-21T07:31:17;17.27;;;3.08;;
12181;SDS011;6154;51.550;12.138;2024-02-21T07:33:46;3.65;;;1.83;;
12181;SDS011;6154;51.550;12.138;2024-02-21T07:36:15;4.72;;;2.70;;
12181;SDS011;6154;51.550;12.138;2024-02-21T07:38:51;7.30;;;2.20;;
12181;SDS011;6154;51.550;12.138;2024-02-21T07:41:19;11.32;;;2.87;;
12181;SDS011;6154;51.550;12.138;2024-02-21T07:43:47;8.95;;;2.65;;
12181;SDS011;6154;51.550;12.138;2024-02-21T07:46:15;13.27;;;2.40;;
12181;SDS011;6154;51.550;12.138;2024-02-21T07:48:44;3.83;;;2.67;;
12181;SDS011;6154;51.550;12.138;2024-02-21T07:51:12;8.30;;;2.80;;
12181;SDS011;6154;51.550;12.138;2024-02-21T07:53:43;5.25;;;2.70;;
12181;SDS011;6154;51.550;12.138;2024-02-21T07:56:12;5.05;;;2.30;;
12181;SDS011;6154;51.550;12.138;2024-02-21T07:58:41;7.85;;;2.87;;
12181;SDS011;6154;51.550;12.138;2024-02-21T08:01:10;7.43;;;2.53;;
12181;SDS011;6154;51.550;12.138;2024-02-21T08:03:38;5.55;;;2.15;;
12181;SDS011;6154;51.550;12.138;2024-02-21T08:06:11;6.03;;;2.35;;
12181;SDS011;6154;51.550;12.138;2024-02-21T08:08:41;9.10;;;2.40;;
12181;SDS011;6154;51.550;12.138;2024-02-21T08:11:09;8.63;;;3.03;;
12181;SDS011;6154;51.550;12.138;2024-02-21T08:13:37;3.53;;;1.67;;
12181;SDS011;6154;51.550;12.138;2024-02-21T08:16:06;5.45;;;2.42;;
12181;SDS011;6154;51.550;12.138;2024-02-21T08:18:34;11.18;;;3.08;;
12181;SDS011;6154;51.550;12.138;2024-02-21T08:21:03;5.97;;;2.35;;
12181;SDS011;6154;51.550;12.138;2024-02-21T08:23:31;6.15;;;2.58;;
12181;SDS011;6154;51.550;12.138;2024-02-21T08:26:02;4.55;;;2.75;;
12181;SDS011;6154;51.550;12.138;2024-02-21T08:28:30;5.70;;;2.17;;
12181;SDS011;6154;51.550;12.138;2024-02-21T08:30:58;7.20;;;2.37;;
12181;SDS011;6154;51.550;12.138;2024-02-21T08:33:26;6.28;;;2.72;;
12181;SDS011;6154;51.550;12.138;2024-02-21T08:35:56;8.82;;;2.95;;
12181;SDS011;6154;51.550;12.138;2024-02-21T08:38:24;4.40;;;1.87;;
12181;SDS011;6154;51.550;12.138;2024-02-21T08:40:52;7.50;;;3.45;;
12181;SDS011;6154;51.550;12.138;2024-02-21T08:43:21;5.87;;;2.67;;
12181;SDS011;6154;51.550;12.138;2024-02-21T08:45:50;4.25;;;2.20;;
12181;SDS011;6154;51.550;12.138;2024-02-21T08:48:18;7.25;;;2.75;;
12181;SDS011;6154;51.550;12.138;2024-02-21T08:50:46;7.53;;;3.05;;
12181;SDS011;6154;51.550;12.138;2024-02-21T08:53:14;7.50;;;2.95;;
12181;SDS011;6154;51.550;12.138;2024-02-21T08:55:43;8.80;;;2.33;;
12181;SDS011;6154;51.550;12.138;2024-02-21T08:58:12;6.15;;;2.45;;
12181;SDS011;6154;51.550;12.138;2024-02-21T09:00:43;4.03;;;2.47;;
12181;SDS011;6154;51.550;12.138;2024-02-21T09:03:11;6.15;;;2.58;;
12181;SDS011;6154;51.550;12.138;2024-02-21T09:05:39;6.57;;;2.65;;
12181;SDS011;6154;51.550;12.138;2024-02-21T09:08:08;4.45;;;2.25;;
12181;SDS011;6154;51.550;12.138;2024-02-21T09:10:36;3.50;;;1.73;;
12181;SDS011;6154;51.550;12.138;2024-02-21T09:13:03;7.62;;;2.65;;
12181;SDS011;6154;51.550;12.138;2024-02-21T09:15:32;10.15;;;2.78;;
12181;SDS011;6154;51.550;12.138;2024-02-21T09:18:02;4.60;;;2.17;;
12181;SDS011;6154;51.550;12.138;2024-02-21T09:20:30;8.30;;;1.95;;
12181;SDS011;6154;51.550;12.138;2024-02-21T09:22:58;8.23;;;2.80;;
12181;SDS011;6154;51.550;12.138;2024-02-21T09:25:27;7.20;;;2.08;;
12181;SDS011;6154;51.550;12.138;2024-02-21T09:27:56;2.80;;;2.00;;
12181;SDS011;6154;51.550;12.138;2024-02-21T09:30:25;3.75;;;2.15;;
12181;SDS011;6154;51.550;12.138;2024-02-21T09:32:54;3.05;;;1.40;;
12181;SDS011;6154;51.550;12.138;2024-02-21T09:35:26;5.00;;;1.65;;
12181;SDS011;6154;51.550;12.138;2024-02-21T09:37:54;5.87;;;2.10;;
12181;SDS011;6154;51.550;12.138;2024-02-21T09:40:22;5.85;;;1.98;;
12181;SDS011;6154;51.550;12.138;2024-02-21T09:42:52;3.70;;;2.33;;
12181;SDS011;6154;51.550;12.138;2024-02-21T09:45:30;6.35;;;1.87;;
12181;SDS011;6154;51.550;12.138;2024-02-21T09:48:14;6.07;;;2.37;;
12181;SDS011;6154;51.550;12.138;2024-02-21T09:50:57;6.53;;;2.50;;
12181;SDS011;6154;51.550;12.138;2024-02-21T09:53:27;5.00;;;1.75;;
12181;SDS011;6154;51.550;12.138;2024-02-21T09:55:55;6.55;;;1.87;;
12181;SDS011;6154;51.550;12.138;2024-02-21T09:58:24;4.75;;;2.28;;
12181;SDS011;6154;51.550;12.138;2024-02-21T10:00:54;4.70;;;1.65;;
12181;SDS011;6154;51.550;12.138;2024-02-21T10:03:24;4.37;;;2.22;;
12181;SDS011;6154;51.550;12.138;2024-02-21T10:05:52;4.62;;;1.95;;
12181;SDS011;6154;51.550;12.138;2024-02-21T10:08:21;6.28;;;2.30;;
12181;SDS011;6154;51.550;12.138;2024-02-21T10:10:49;3.42;;;1.45;;
12181;SDS011;6154;51.550;12.138;2024-02-21T10:13:24;3.37;;;1.90;;
12181;SDS011;6154;51.550;12.138;2024-02-21T10:16:03;3.53;;;1.60;;
12181;SDS011;6154;51.550;12.138;2024-02-21T10:18:31;3.87;;;2.22;;
12181;SDS011;6154;51.550;12.138;2024-02-21T10:21:01;9.80;;;1.73;;
12181;SDS011;6154;51.550;12.138;2024-02-21T10:23:43;3.70;;;1.83;;
12181;SDS011;6154;51.550;12.138;2024-02-21T10:26:12;5.97;;;2.00;;
12181;SDS011;6154;51.550;12.138;2024-02-21T10:28:40;3.50;;;2.00;;
12181;SDS011;6154;51.550;12.138;2024-02-21T10:31:11;2.92;;;1.60;;
12181;SDS011;6154;51.550;12.138;2024-02-21T10:33:53;5.68;;;2.40;;
12181;SDS011;6154;51.550;12.138;2024-02-21T10:36:23;7.18;;;1.98;;
12181;SDS011;6154;51.550;12.138;2024-02-21T10:38:53;4.97;;;1.80;;
12181;SDS011;6154;51.550;12.138;2024-02-21T10:41:22;2.90;;;1.83;;
12181;SDS011;6154;51.550;12.138;2024-02-21T10:43:51;5.10;;;2.20;;
12181;SDS011;6154;51.550;12.138;2024-02-21T10:46:22;3.10;;;1.73;;
12181;SDS011;6154;51.550;12.138;2024-02-21T10:48:55;3.95;;;2.10;;
12181;SDS011;6154;51.550;12.138;2024-02-21T10:51:33;7.50;;;2.33;;
12181;SDS011;6154;51.550;12.138;2024-02-21T10:54:11;6.00;;;2.30;;
12181;SDS011;6154;51.550;12.138;2024-02-21T10:56:46;4.28;;;1.98;;
12181;SDS011;6154;51.550;12.138;2024-02-21T10:59:17;5.50;;;1.80;;
12181;SDS011;6154;51.550;12.138;2024-02-21T11:01:46;5.18;;;2.00;;
12181;SDS011;6154;51.550;12.138;2024-02-21T11:04:15;4.35;;;1.65;;
12181;SDS011;6154;51.550;12.138;2024-02-21T11:06:44;5.43;;;1.73;;
12181;SDS011;6154;51.550;12.138;2024-02-21T11:09:15;5.97;;;1.77;;
12181;SDS011;6154;51.550;12.138;2024-02-21T11:11:43;2.15;;;1.58;;
12181;SDS011;6154;51.550;12.138;2024-02-21T11:14:18;6.28;;;1.85;;
12181;SDS011;6154;51.550;12.138;2024-02-21T11:16:47;2.90;;;1.30;;
12181;SDS011;6154;51.550;12.138;2024-02-21T11:19:19;4.65;;;1.60;;
12181;SDS011;6154;51.550;12.138;2024-02-21T11:21:48;4.68;;;1.87;;
12181;SDS011;6154;51.550;12.138;2024-02-21T11:24:26;2.90;;;1.30;;
12181;SDS011;6154;51.550;12.138;2024-02-21T11:26:56;3.37;;;1.48;;
12181;SDS011;6154;51.550;12.138;2024-02-21T11:29:24;2.83;;;1.10;;
12181;SDS011;6154;51.550;12.138;2024-02-21T11:31:53;3.35;;;1.65;;
12181;SDS011;6154;51.550;12.138;2024-02-21T11:34:21;3.20;;;1.40;;
12181;SDS011;6154;51.550;12.138;2024-02-21T11:36:50;4.10;;;1.62;;
12181;SDS011;6154;51.550;12.138;2024-02-21T11:39:19;3.45;;;1.40;;
12181;SDS011;6154;51.550;12.138;2024-02-21T11:42:01;2.50;;;1.30;;
12181;SDS011;6154;51.550;12.138;2024-02-21T11:44:30;2.53;;;1.52;;
12181;SDS011;6154;51.550;12.138;2024-02-21T11:46:59;2.42;;;1.17;;
12181;SDS011;6154;51.550;12.138;2024-02-21T11:49:28;2.42;;;1.02;;
12181;SDS011;6154;51.550;12.138;2024-02-21T11:52:00;2.62;;;1.20;;
12181;SDS011;6154;51.550;12.138;2024-02-21T11:54:30;4.62;;;0.85;;
12181;SDS011;6154;51.550;12.138;2024-02-21T11:56:59;3.97;;;0.82;;
12181;SDS011;6154;51.550;12.138;2024-02-21T11:59:29;2.08;;;0.82;;
12181;SDS011;6154;51.550;12.138;2024-02-21T12:01:58;2.05;;;1.30;;
12181;SDS011;6154;51.550;12.138;2024-02-21T12:04:27;1.80;;;1.12;;
12181;SDS011;6154;51.550;12.138;2024-02-21T12:06:56;1.92;;;1.10;;
12181;SDS011;6154;51.550;12.138;2024-02-21T12:09:24;3.92;;;1.10;;
12181;SDS011;6154;51.550;12.138;2024-02-21T12:12:02;2.40;;;1.27;;
12181;SDS011;6154;51.550;12.138;2024-02-21T12:14:34;2.65;;;1.15;;
12181;SDS011;6154;51.550;12.138;2024-02-21T12:17:02;2.17;;;1.75;;
12181;SDS011;6154;51.550;12.138;2024-02-21T12:19:32;1.62;;;1.17;;
12181;SDS011;6154;51.550;12.138;2024-02-21T12:22:01;3.55;;;1.23;;
12181;SDS011;6154;51.550;12.138;2024-02-21T12:24:33;2.87;;;1.08;;
12181;SDS011;6154;51.550;12.138;2024-02-21T12:27:02;3.12;;;1.27;;
12181;SDS011;6154;51.550;12.138;2024-02-21T12:29:31;7.72;;;1.50;;
12181;SDS011;6154;51.550;12.138;2024-02-21T12:32:02;3.10;;;1.10;;
12181;SDS011;6154;51.550;12.138;2024-02-21T12:34:31;5.65;;;1.65;;
12181;SDS011;6154;51.550;12.138;2024-02-21T12:37:18;4.85;;;1.30;;
12181;SDS011;6154;51.550;12.138;2024-02-21T12:39:49;2.58;;;1.20;;
12181;SDS011;6154;51.550;12.138;2024-02-21T12:42:17;2.95;;;1.50;;
12181;SDS011;6154;51.550;12.138;2024-02-21T12:44:46;6.10;;;1.58;;
12181;SDS011;6154;51.550;12.138;2024-02-21T12:47:14;3.40;;;1.55;;
12181;SDS011;6154;51.550;12.138;2024-02-21T12:49:42;3.42;;;1.65;;
12181;SDS011;6154;51.550;12.138;2024-02-21T12:52:12;4.05;;;1.60;;
12181;SDS011;6154;51.550;12.138;2024-02-21T12:54:40;3.45;;;1.70;;
12181;SDS011;6154;51.550;12.138;2024-02-21T12:57:09;2.78;;;1.50;;
12181;SDS011;6154;51.550;12.138;2024-02-21T12:59:37;2.42;;;1.60;;
12181;SDS011;6154;51.550;12.138;2024-02-21T13:02:06;2.17;;;1.40;;
12181;SDS011;6154;51.550;12.138;2024-02-21T13:04:35;1.58;;;1.10;;
12181;SDS011;6154;51.550;12.138;2024-02-21T13:07:09;2.22;;;1.30;;
12181;SDS011;6154;51.550;12.138;2024-02-21T13:09:37;3.85;;;1.50;;
12181;SDS011;6154;51.550;12.138;2024-02-21T13:12:05;2.83;;;1.30;;
12181;SDS011;6154;51.550;12.138;2024-02-21T13:14:36;3.92;;;1.80;;
12181;SDS011;6154;51.550;12.138;2024-02-21T13:17:07;3.17;;;1.85;;
12181;SDS011;6154;51.550;12.138;2024-02-21T13:19:35;2.40;;;1.33;;
12181;SDS011;6154;51.550;12.138;2024-02-21T13:22:03;4.82;;;1.50;;
12181;SDS011;6154;51.550;12.138;2024-02-21T13:24:31;6.07;;;1.95;;
12181;SDS011;6154;51.550;12.138;2024-02-21T13:26:59;1.40;;;1.23;;
12181;SDS011;6154;51.550;12.138;2024-02-21T13:29:27;3.05;;;1.95;;
12181;SDS011;6154;51.550;12.138;2024-02-21T13:31:55;2.33;;;1.58;;
12181;SDS011;6154;51.550;12.138;2024-02-21T13:34:25;6.35;;;1.90;;
12181;SDS011;6154;51.550;12.138;2024-02-21T13:36:54;4.35;;;1.70;;
12181;SDS011;6154;51.550;12.138;2024-02-21T13:39:22;3.33;;;1.70;;
12181;SDS011;6154;51.550;12.138;2024-02-21T13:41:50;4.50;;;2.00;;
12181;SDS011;6154;51.550;12.138;2024-02-21T13:44:18;4.12;;;1.75;;
12181;SDS011;6154;51.550;12.138;2024-02-21T13:46:46;3.17;;;1.33;;
12181;SDS011;6154;51.550;12.138;2024-02-21T13:49:15;2.17;;;1.50;;
12181;SDS011;6154;51.550;12.138;2024-02-21T13:51:44;4.03;;;1.42;;
12181;SDS011;6154;51.550;12.138;2024-02-21T13:54:12;3.05;;;1.48;;
12181;SDS011;6154;51.550;12.138;2024-02-21T13:56:43;4.82;;;1.80;;
12181;SDS011;6154;51.550;12.138;2024-02-21T13:59:11;3.62;;;1.75;;
12181;SDS011;6154;51.550;12.138;2024-02-21T14:01:40;4.07;;;1.85;;
12181;SDS011;6154;51.550;12.138;2024-02-21T14:04:08;5.62;;;1.48;;
12181;SDS011;6154;51.550;12.138;2024-02-21T14:06:37;3.22;;;1.95;;
12181;SDS011;6154;51.550;12.138;2024-02-21T14:09:11;4.53;;;1.40;;
12181;SDS011;6154;51.550;12.138;2024-02-21T14:11:39;4.18;;;1.62;;
12181;SDS011;6154;51.550;12.138;2024-02-21T14:14:08;4.45;;;1.60;;
12181;SDS011;6154;51.550;12.138;2024-02-21T14:16:36;4.03;;;1.55;;
12181;SDS011;6154;51.550;12.138;2024-02-21T14:19:04;3.47;;;2.05;;
12181;SDS011;6154;51.550;12.138;2024-02-21T14:21:33;4.05;;;1.67;;
12181;SDS011;6154;51.550;12.138;2024-02-21T14:24:04;3.58;;;1.35;;
12181;SDS011;6154;51.550;12.138;2024-02-21T14:26:33;3.75;;;1.45;;
12181;SDS011;6154;51.550;12.138;2024-02-21T14:29:02;3.42;;;1.30;;
12181;SDS011;6154;51.550;12.138;2024-02-21T14:31:31;3.17;;;1.62;;
12181;SDS011;6154;51.550;12.138;2024-02-21T14:33:59;5.50;;;1.33;;
12181;SDS011;6154;51.550;12.138;2024-02-21T14:36:29;3.10;;;1.60;;
12181;SDS011;6154;51.550;12.138;2024-02-21T14:38:57;5.80;;;1.98;;
12181;SDS011;6154;51.550;12.138;2024-02-21T14:41:25;2.33;;;1.52;;
12181;SDS011;6154;51.550;12.138;2024-02-21T14:43:55;4.43;;;1.73;;
12181;SDS011;6154;51.550;12.138;2024-02-21T14:46:30;3.75;;;1.70;;
12181;SDS011;6154;51.550;12.138;2024-02-21T14:49:01;5.45;;;2.53;;
12181;SDS011;6154;51.550;12.138;2024-02-21T14:51:30;6.95;;;2.20;;
12181;SDS011;6154;51.550;12.138;2024-02-21T14:53:58;6.40;;;2.20;;
12181;SDS011;6154;51.550;12.138;2024-02-21T14:56:26;4.85;;;1.67;;
12181;SDS011;6154;51.550;12.138;2024-02-21T14:58:56;2.47;;;1.80;;
12181;SDS011;6154;51.550;12.138;2024-02-21T15:01:37;1.92;;;1.27;;